Time;durP1;ratioP1;P1;durP2;ratioP2;P2;SDS_P1;SDS_P2;PMS_P1;PMS_P2;Temp;Humidity;BMP_temperature;BMP_pressure;BME280_temperature;BME280_humidity;BME280_pressure;Samples;Min_cycle;Max_cycle;Signal;HPM_P1;HPM_P2
2022/11/20 00:00:51;;;;;;;6.05;4.50;;;0.10;99.90;;;;;;5055308;28;20043;-75
2022/11/20 00:03:17;;;;;;;5.88;3.95;;;0.10;99.90;;;;;;5061610;28;20424;-74
2022/11/20 00:05:44;;;;;;;6.30;3.97;;;0.20;99.90;;;;;;5050082;28;20036;-74
2022/11/20 00:08:10;;;;;;;6.05;3.90;;;0.20;99.90;;;;;;5034052;28;20130;-74
2022/11/20 00:10:39;;;;;;;6.13;3.95;;;0.20;99.90;;;;;;5056829;28;20032;-74
2022/11/20 00:13:05;;;;;;;4.88;3.28;;;0.20;99.90;;;;;;5059653;28;20109;-74
2022/11/20 00:15:31;;;;;;;5.20;3.47;;;0.20;99.90;;;;;;5058691;28;20057;-74
2022/11/20 00:17:57;;;;;;;8.18;5.32;;;0.30;99.90;;;;;;5054607;28;20476;-74
2022/11/20 00:20:23;;;;;;;8.07;5.40;;;0.30;99.90;;;;;;5061854;28;20133;-75
2022/11/20 00:22:50;;;;;;;6.50;4.80;;;0.30;99.90;;;;;;5042167;28;20579;-74
2022/11/20 00:25:18;;;;;;;5.97;4.05;;;0.30;99.90;;;;;;5058988;28;20039;-75
2022/11/20 00:27:44;;;;;;;5.33;3.53;;;0.30;99.90;;;;;;5051339;28;20029;-75
2022/11/20 00:30:10;;;;;;;6.07;3.97;;;0.30;99.90;;;;;;5062333;28;20369;-75
2022/11/20 00:32:35;;;;;;;4.82;3.55;;;0.30;99.90;;;;;;5054792;28;20330;-75
2022/11/20 00:35:01;;;;;;;5.40;3.50;;;0.40;99.90;;;;;;5059351;28;20112;-76
2022/11/20 00:37:27;;;;;;;3.65;2.78;;;0.40;99.90;;;;;;5037721;28;20045;-75
2022/11/20 00:39:52;;;;;;;3.95;2.88;;;0.40;99.90;;;;;;5061149;28;20048;-75
2022/11/20 00:42:18;;;;;;;4.18;3.00;;;0.40;99.90;;;;;;5059432;28;20178;-75
2022/11/20 00:44:44;;;;;;;5.22;3.30;;;0.40;99.90;;;;;;5043673;28;20037;-74
2022/11/20 00:47:10;;;;;;;4.25;2.90;;;0.50;99.90;;;;;;5062112;28;20052;-75
2022/11/20 00:49:35;;;;;;;4.93;3.30;;;0.50;99.90;;;;;;5030505;28;20182;-74
2022/11/20 00:52:01;;;;;;;6.30;4.35;;;0.50;99.90;;;;;;5042369;28;20049;-75
2022/11/20 00:54:26;;;;;;;7.00;4.30;;;0.50;99.90;;;;;;5045280;28;20040;-75
2022/11/20 00:56:55;;;;;;;5.00;3.73;;;0.40;99.90;;;;;;5042103;28;20302;-74
2022/11/20 00:59:21;;;;;;;5.03;3.53;;;0.40;99.90;;;;;;5083518;28;20306;-75
2022/11/20 01:01:46;;;;;;;5.37;3.97;;;0.30;99.90;;;;;;5039359;28;20388;-74
2022/11/20 01:04:12;;;;;;;6.90;5.17;;;0.30;99.90;;;;;;5059316;28;20301;-74
2022/11/20 01:06:39;;;;;;;6.67;4.67;;;0.30;99.90;;;;;;5046460;28;20377;-74
2022/11/20 01:09:08;;;;;;;5.90;3.95;;;0.30;99.90;;;;;;5039873;28;20458;-75
2022/11/20 01:11:36;;;;;;;5.90;4.50;;;0.20;99.90;;;;;;5062493;28;20201;-74
2022/11/20 01:14:03;;;;;;;5.20;3.90;;;0.30;99.90;;;;;;5055880;28;20041;-75
2022/11/20 01:16:35;;;;;;;5.43;3.67;;;0.30;99.90;;;;;;5058637;28;20578;-74
2022/11/20 01:19:02;;;;;;;5.35;3.53;;;0.30;99.90;;;;;;5057260;28;20036;-74
2022/11/20 01:21:34;;;;;;;4.53;3.40;;;0.30;99.90;;;;;;5046655;28;20549;-74
2022/11/20 01:24:01;;;;;;;4.70;3.40;;;0.30;99.90;;;;;;5061067;28;20448;-74
2022/11/20 01:26:29;;;;;;;4.60;3.47;;;0.30;99.90;;;;;;5063641;28;20510;-75
2022/11/20 01:28:56;;;;;;;4.93;3.00;;;0.30;99.90;;;;;;5036044;28;20045;-75
2022/11/20 01:31:25;;;;;;;4.03;2.80;;;0.30;99.90;;;;;;5052343;28;20109;-76
2022/11/20 01:33:53;;;;;;;4.72;3.45;;;0.30;99.90;;;;;;5052455;28;20059;-75
2022/11/20 01:36:22;;;;;;;4.28;3.03;;;0.30;99.90;;;;;;5066596;28;20040;-75
2022/11/20 01:38:50;;;;;;;4.90;3.60;;;0.30;99.90;;;;;;5072487;28;20040;-76
2022/11/20 01:44:01;;;;;;;4.45;3.08;;;0.30;99.90;;;;;;5072800;28;20048;-75
2022/11/20 01:46:27;;;;;;;;;;;0.30;99.90;;;;;;5072600;28;20154;-76
2022/11/20 01:49:16;;;;;;;6.07;3.92;;;0.30;99.90;;;;;;5071516;28;19927;-75
2022/11/20 01:51:47;;;;;;;5.40;3.90;;;0.30;99.90;;;;;;5054318;28;20411;-75
2022/11/20 01:54:24;;;;;;;8.75;5.75;;;0.30;99.90;;;;;;5072136;28;20097;-75
2022/11/20 01:56:53;;;;;;;5.88;4.38;;;0.30;99.90;;;;;;5062687;28;20036;-75
2022/11/20 01:59:21;;;;;;;6.97;4.50;;;0.30;99.90;;;;;;5052581;28;20381;-75
2022/11/20 02:01:47;;;;;;;5.05;3.80;;;0.20;99.90;;;;;;5036172;28;20052;-75
2022/11/20 02:04:14;;;;;;;8.07;5.40;;;0.20;99.90;;;;;;5063334;28;20033;-75
2022/11/20 02:06:44;;;;;;;6.97;5.22;;;0.20;99.90;;;;;;5038185;28;20056;-75
2022/11/20 02:09:11;;;;;;;8.40;5.55;;;0.20;99.90;;;;;;5055043;28;20054;-75
2022/11/20 02:11:37;;;;;;;7.88;5.00;;;0.20;99.90;;;;;;5055373;28;20064;-75
2022/11/20 02:14:03;;;;;;;5.93;4.47;;;0.20;99.90;;;;;;5036216;28;20134;-75
2022/11/20 02:16:32;;;;;;;5.82;4.05;;;0.20;99.90;;;;;;5051219;28;20484;-75
2022/11/20 02:19:01;;;;;;;6.88;4.50;;;0.20;99.90;;;;;;5034291;28;20063;-75
2022/11/20 02:21:45;;;;;;;7.63;5.25;;;0.20;99.90;;;;;;5051604;28;20041;-75
2022/11/20 02:24:22;;;;;;;8.77;6.40;;;0.20;99.90;;;;;;5056876;28;20230;-75
2022/11/20 02:26:57;;;;;;;9.15;5.68;;;0.20;99.90;;;;;;5059698;28;20045;-75
2022/11/20 02:29:37;;;;;;;7.95;5.20;;;0.20;99.90;;;;;;5054343;28;20037;-75
2022/11/20 02:32:03;;;;;;;9.60;6.53;;;0.20;99.90;;;;;;5052332;28;20045;-75
2022/11/20 02:34:29;;;;;;;8.82;6.05;;;0.30;99.90;;;;;;5071395;28;20075;-75
2022/11/20 02:36:57;;;;;;;7.47;5.35;;;0.30;99.90;;;;;;5069568;28;20048;-74
2022/11/20 02:39:26;;;;;;;6.90;4.82;;;0.20;99.90;;;;;;5069335;28;20582;-75
2022/11/20 02:41:55;;;;;;;7.68;5.00;;;0.30;99.90;;;;;;5070771;28;20044;-75
2022/11/20 02:44:21;;;;;;;6.63;4.70;;;0.30;99.90;;;;;;5054207;28;20049;-75
2022/11/20 02:46:46;;;;;;;6.82;4.55;;;0.30;99.90;;;;;;5050451;28;20044;-75
2022/11/20 02:49:12;;;;;;;5.80;4.20;;;0.30;99.90;;;;;;5036101;28;20454;-76
2022/11/20 02:51:38;;;;;;;5.50;3.77;;;0.40;99.90;;;;;;5062354;28;20295;-75
2022/11/20 02:54:04;;;;;;;5.55;3.85;;;0.40;99.90;;;;;;5071912;28;20362;-75
2022/11/20 02:56:30;;;;;;;3.80;2.75;;;0.40;99.90;;;;;;5068831;28;20479;-75
2022/11/20 02:58:56;;;;;;;5.63;4.20;;;0.40;99.90;;;;;;5071700;28;20807;-75
2022/11/20 03:01:21;;;;;;;6.20;4.07;;;0.40;99.90;;;;;;5054137;28;20045;-75
2022/11/20 03:03:48;;;;;;;4.90;3.58;;;0.40;99.90;;;;;;5051098;28;20094;-75
2022/11/20 03:06:15;;;;;;;5.55;3.78;;;0.50;99.90;;;;;;5056392;28;20048;-75
2022/11/20 03:08:42;;;;;;;4.60;3.30;;;0.40;99.90;;;;;;5072055;28;20487;-74
2022/11/20 03:11:08;;;;;;;;;;;0.50;99.90;;;;;;5058627;28;20041;-74
2022/11/20 03:13:34;;;;;;;5.68;3.75;;;0.40;99.90;;;;;;5070213;28;20279;-74
2022/11/20 03:16:08;;;;;;;5.10;3.75;;;0.50;99.90;;;;;;5034066;28;20049;-73
2022/11/20 03:18:34;;;;;;;5.25;3.65;;;0.40;99.90;;;;;;5053197;28;20044;-74
2022/11/20 03:21:00;;;;;;;4.90;3.50;;;0.50;99.90;;;;;;5065914;28;20032;-75
2022/11/20 03:23:25;;;;;;;5.35;3.83;;;0.50;99.90;;;;;;5070055;28;20136;-74
2022/11/20 03:25:51;;;;;;;5.22;3.42;;;0.50;99.90;;;;;;5063377;28;20055;-74
2022/11/20 03:28:17;;;;;;;3.53;2.70;;;0.50;99.90;;;;;;5034009;28;20106;-74
2022/11/20 03:30:42;;;;;;;5.25;3.33;;;0.50;99.90;;;;;;5034833;28;20051;-74
2022/11/20 03:33:08;;;;;;;5.10;3.42;;;0.50;99.90;;;;;;5034304;28;20041;-74
2022/11/20 03:35:34;;;;;;;4.43;3.10;;;0.50;99.90;;;;;;5046827;28;20454;-75
2022/11/20 03:37:59;;;;;;;4.57;3.30;;;0.50;99.90;;;;;;5037252;28;20059;-74
2022/11/20 03:40:25;;;;;;;4.32;3.30;;;0.50;99.90;;;;;;5039011;28;20051;-73
2022/11/20 03:42:51;;;;;;;4.85;3.72;;;0.50;99.90;;;;;;5050787;28;20087;-74
2022/11/20 03:45:17;;;;;;;5.82;3.85;;;0.50;99.90;;;;;;5062654;28;20059;-74
2022/11/20 03:47:44;;;;;;;10.25;6.70;;;0.40;99.90;;;;;;5056798;28;20488;-74
2022/11/20 03:50:12;;;;;;;;;;;0.50;99.90;;;;;;5071619;28;20040;-74
2022/11/20 03:52:38;;;;;;;;;;;0.40;99.90;;;;;;5042072;28;20000;-74
2022/11/20 03:55:04;;;;;;;7.80;5.25;;;0.50;99.90;;;;;;5064668;28;19916;-75
2022/11/20 03:57:30;;;;;;;7.63;5.00;;;0.50;99.90;;;;;;5060347;28;20056;-75
2022/11/20 03:59:56;;;;;;;5.70;3.80;;;0.50;99.90;;;;;;5033006;28;20045;-75
2022/11/20 04:02:21;;;;;;;4.65;3.30;;;0.50;99.90;;;;;;5056439;28;20364;-75
2022/11/20 04:04:47;;;;;;;5.72;4.10;;;0.50;99.90;;;;;;5053625;28;20047;-72
2022/11/20 04:07:12;;;;;;;5.33;3.80;;;0.50;99.90;;;;;;5070207;28;20044;-75
2022/11/20 04:09:38;;;;;;;5.40;3.60;;;0.50;99.90;;;;;;5054342;28;20280;-74
2022/11/20 04:12:04;;;;;;;4.93;3.70;;;0.50;99.90;;;;;;5072005;28;20373;-74
2022/11/20 04:14:29;;;;;;;4.70;3.60;;;0.50;99.90;;;;;;5087292;28;20746;-75
2022/11/20 04:16:55;;;;;;;4.20;3.13;;;0.60;99.90;;;;;;5055846;28;20476;-74
2022/11/20 04:19:21;;;;;;;4.43;3.03;;;0.50;99.90;;;;;;5038482;28;20109;-74
2022/11/20 04:21:46;;;;;;;4.15;2.85;;;0.50;99.90;;;;;;5039847;28;20317;-74
2022/11/20 04:24:12;;;;;;;4.15;3.20;;;0.60;99.90;;;;;;5061433;28;20483;-75
2022/11/20 04:26:39;;;;;;;4.63;3.05;;;0.60;99.90;;;;;;5055404;28;20047;-75
2022/11/20 04:29:05;;;;;;;4.28;3.20;;;0.60;99.90;;;;;;5068679;28;20041;-74
2022/11/20 04:31:33;;;;;;;5.07;3.50;;;0.60;99.90;;;;;;5061828;28;20664;-74
2022/11/20 04:34:00;;;;;;;3.55;2.92;;;0.60;99.90;;;;;;5052906;28;20146;-74
2022/11/20 04:36:27;;;;;;;4.97;3.00;;;0.60;99.90;;;;;;5048240;28;20466;-74
2022/11/20 04:38:58;;;;;;;4.57;2.78;;;0.60;99.90;;;;;;5069372;28;20403;-74
2022/11/20 04:41:29;;;;;;;4.80;3.22;;;0.60;99.90;;;;;;5051983;28;20518;-74
2022/11/20 04:43:59;;;;;;;4.22;2.97;;;0.60;99.90;;;;;;5063583;28;20040;-73
2022/11/20 04:46:26;;;;;;;3.92;2.80;;;0.70;99.90;;;;;;5072889;28;20048;-74
2022/11/20 04:48:52;;;;;;;3.88;3.00;;;0.60;99.90;;;;;;5071815;28;20044;-74
2022/11/20 04:51:18;;;;;;;5.65;3.78;;;0.70;99.90;;;;;;5040830;28;20037;-74
2022/11/20 04:53:43;;;;;;;4.65;3.22;;;0.70;99.90;;;;;;5062270;28;20492;-74
2022/11/20 04:56:11;;;;;;;4.82;3.50;;;0.70;99.90;;;;;;5071971;28;20082;-74
2022/11/20 04:58:38;;;;;;;6.07;4.35;;;0.70;99.90;;;;;;5072076;28;20071;-74
2022/11/20 05:01:16;;;;;;;4.40;3.28;;;0.70;99.90;;;;;;5072931;28;20048;-74
2022/11/20 05:03:43;;;;;;;4.65;3.40;;;0.70;99.90;;;;;;5069611;28;20478;-74
2022/11/20 05:06:10;;;;;;;3.83;2.90;;;0.70;99.90;;;;;;5053304;28;20063;-73
2022/11/20 05:08:36;;;;;;;5.88;3.92;;;0.70;99.90;;;;;;5057436;28;20048;-74
2022/11/20 05:11:07;;;;;;;5.25;3.55;;;0.70;99.90;;;;;;5068974;28;20040;-74
2022/11/20 05:13:33;;;;;;;4.53;3.35;;;0.70;99.90;;;;;;5054087;28;20052;-74
2022/11/20 05:16:03;;;;;;;4.15;3.28;;;0.70;99.90;;;;;;5053941;28;20059;-70
2022/11/20 05:18:29;;;;;;;5.03;3.40;;;0.70;99.90;;;;;;5066093;28;20094;-68
2022/11/20 05:20:56;;;;;;;4.47;3.35;;;0.70;99.90;;;;;;5068316;28;20044;-69
2022/11/20 05:23:22;;;;;;;4.78;3.50;;;0.70;99.90;;;;;;5065373;28;20064;-71
2022/11/20 05:25:47;;;;;;;4.63;3.10;;;0.70;99.90;;;;;;5054381;28;20480;-69
2022/11/20 05:28:13;;;;;;;4.13;2.80;;;0.70;99.90;;;;;;5054433;28;20048;-71
2022/11/20 05:30:39;;;;;;;4.72;3.22;;;0.70;99.90;;;;;;5038854;28;20068;-71
2022/11/20 05:33:05;;;;;;;4.70;3.40;;;0.70;99.90;;;;;;5067893;28;20036;-71
2022/11/20 05:35:30;;;;;;;4.47;3.17;;;0.70;99.90;;;;;;5068775;28;20386;-69
2022/11/20 05:37:56;;;;;;;4.00;2.97;;;0.70;99.90;;;;;;5054897;28;20290;-69
2022/11/20 05:40:22;;;;;;;4.20;3.00;;;0.70;99.90;;;;;;5041294;28;20789;-69
2022/11/20 05:42:47;;;;;;;3.13;2.50;;;0.80;99.90;;;;;;5056028;28;20053;-69
2022/11/20 05:45:13;;;;;;;3.28;2.47;;;0.70;99.90;;;;;;5021745;28;20063;-70
2022/11/20 05:47:38;;;;;;;2.90;2.10;;;0.70;99.90;;;;;;5054901;28;20052;-70
2022/11/20 05:50:04;;;;;;;2.90;2.30;;;0.70;99.90;;;;;;5056254;28;20045;-70
2022/11/20 05:52:30;;;;;;;5.72;4.30;;;0.70;99.90;;;;;;5039257;28;20041;-70
2022/11/20 05:54:56;;;;;;;5.35;3.90;;;0.70;99.90;;;;;;5084740;28;20063;-70
2022/11/20 05:57:22;;;;;;;7.32;4.65;;;0.70;99.90;;;;;;5042588;28;20067;-70
2022/11/20 05:59:48;;;;;;;5.55;4.07;;;0.70;99.90;;;;;;5044395;28;20040;-69
2022/11/20 06:02:13;;;;;;;4.10;3.17;;;0.70;99.90;;;;;;5037720;28;20131;-75
2022/11/20 06:04:39;;;;;;;6.15;4.30;;;0.70;99.90;;;;;;5051904;28;20152;-75
2022/11/20 06:07:06;;;;;;;6.78;4.78;;;0.70;99.90;;;;;;5039378;28;20037;-75
2022/11/20 06:09:32;;;;;;;7.20;5.00;;;0.70;99.90;;;;;;5053041;28;20041;-75
2022/11/20 06:11:57;;;;;;;5.88;4.20;;;0.70;99.90;;;;;;5061097;28;20126;-75
2022/11/20 06:14:23;;;;;;;4.93;3.73;;;0.60;99.90;;;;;;5054423;28;20079;-74
2022/11/20 06:16:49;;;;;;;3.77;2.67;;;0.70;99.90;;;;;;5063983;28;20282;-75
2022/11/20 06:19:15;;;;;;;3.72;2.80;;;0.60;99.90;;;;;;5069487;28;20305;-75
2022/11/20 06:21:40;;;;;;;3.80;2.80;;;0.60;99.90;;;;;;5042640;28;20040;-74
2022/11/20 06:24:08;;;;;;;4.00;2.80;;;0.60;99.90;;;;;;5064912;28;20056;-75
2022/11/20 06:26:34;;;;;;;3.70;2.63;;;0.70;99.90;;;;;;5058699;28;20144;-75
2022/11/20 06:28:59;;;;;;;3.50;2.47;;;0.70;99.90;;;;;;5059495;28;20301;-74
2022/11/20 06:31:26;;;;;;;3.70;2.80;;;0.70;99.90;;;;;;5038764;28;20327;-74
2022/11/20 06:33:52;;;;;;;4.95;3.10;;;0.70;99.90;;;;;;5059419;28;20142;-75
2022/11/20 06:36:20;;;;;;;4.05;2.83;;;0.70;99.90;;;;;;5058911;28;20033;-74
2022/11/20 06:38:46;;;;;;;5.60;4.15;;;0.70;99.90;;;;;;5054503;28;20041;-75
2022/11/20 06:41:18;;;;;;;5.10;3.63;;;0.70;99.90;;;;;;5053732;28;20403;-74
2022/11/20 06:43:44;;;;;;;5.55;3.50;;;0.80;99.90;;;;;;5055413;28;20049;-74
2022/11/20 06:46:11;;;;;;;4.15;2.83;;;0.70;99.90;;;;;;5052724;28;20058;-74
2022/11/20 06:48:37;;;;;;;4.28;2.80;;;0.80;99.90;;;;;;5039190;28;20046;-74
2022/11/20 06:51:05;;;;;;;3.90;2.90;;;0.80;99.90;;;;;;5054649;28;20115;-74
2022/11/20 06:53:30;;;;;;;3.85;2.70;;;0.80;99.90;;;;;;5061697;28;20060;-74
2022/11/20 06:55:57;;;;;;;4.60;3.13;;;0.80;99.90;;;;;;5056898;28;20496;-75
2022/11/20 06:58:25;;;;;;;3.70;2.70;;;0.80;99.90;;;;;;5058058;28;20060;-74
2022/11/20 07:00:51;;;;;;;4.38;2.60;;;0.80;99.90;;;;;;5052157;28;20044;-75
2022/11/20 07:03:17;;;;;;;3.63;2.65;;;0.80;99.90;;;;;;5056798;28;20045;-75
2022/11/20 07:05:43;;;;;;;3.03;2.27;;;0.80;99.90;;;;;;5051442;28;20036;-74
2022/11/20 07:08:09;;;;;;;3.67;2.30;;;0.80;99.90;;;;;;5057374;28;20797;-75
2022/11/20 07:10:35;;;;;;;2.88;2.25;;;0.80;99.90;;;;;;5041892;28;20049;-75
2022/11/20 07:13:00;;;;;;;3.35;2.25;;;0.90;99.90;;;;;;5056011;28;20418;-75
2022/11/20 07:15:26;;;;;;;3.35;2.50;;;0.90;99.90;;;;;;5070381;28;20048;-74
2022/11/20 07:17:52;;;;;;;3.45;2.47;;;0.90;99.90;;;;;;5060307;28;20132;-74
2022/11/20 07:20:18;;;;;;;4.85;3.28;;;0.90;99.90;;;;;;5044330;28;20056;-74
2022/11/20 07:22:44;;;;;;;4.45;3.15;;;0.90;99.90;;;;;;5069014;28;20076;-73
2022/11/20 07:25:10;;;;;;;3.13;2.47;;;0.90;99.90;;;;;;5053027;28;20060;-74
2022/11/20 07:27:36;;;;;;;3.90;2.75;;;1.00;99.90;;;;;;5069924;28;20055;-74
2022/11/20 07:30:03;;;;;;;3.70;2.78;;;1.00;99.90;;;;;;5069964;28;20483;-74
2022/11/20 07:32:29;;;;;;;5.22;3.85;;;0.90;99.90;;;;;;5059158;28;20060;-74
2022/11/20 07:34:54;;;;;;;5.00;3.77;;;1.00;99.90;;;;;;5049423;28;20045;-74
2022/11/20 07:37:20;;;;;;;4.18;2.90;;;1.00;99.90;;;;;;5033272;28;20315;-74
2022/11/20 07:39:46;;;;;;;5.18;3.55;;;1.00;99.90;;;;;;5051974;28;20041;-75
2022/11/20 07:42:12;;;;;;;4.20;3.10;;;1.00;99.90;;;;;;5049524;28;20061;-74
2022/11/20 07:44:38;;;;;;;4.38;2.78;;;1.10;99.90;;;;;;5016365;28;20651;-74
2022/11/20 07:47:04;;;;;;;3.90;3.00;;;1.10;99.90;;;;;;5049479;28;20368;-75
2022/11/20 07:49:30;;;;;;;3.70;2.83;;;1.10;99.90;;;;;;5050164;28;20103;-74
2022/11/20 07:51:56;;;;;;;4.63;3.08;;;1.10;99.90;;;;;;5050146;28;20049;-73
2022/11/20 07:54:22;;;;;;;3.40;2.67;;;1.10;99.90;;;;;;5050018;28;20041;-74
2022/11/20 07:56:49;;;;;;;5.10;3.20;;;1.10;99.90;;;;;;5049625;28;20045;-74
2022/11/20 07:59:15;;;;;;;3.70;2.75;;;1.10;99.90;;;;;;5033154;28;20053;-75
2022/11/20 08:01:41;;;;;;;3.72;2.83;;;1.10;99.90;;;;;;5049300;28;20068;-74
2022/11/20 08:04:07;;;;;;;3.92;2.85;;;1.10;99.90;;;;;;5050017;28;20492;-75
2022/11/20 08:06:33;;;;;;;4.18;2.85;;;1.10;99.90;;;;;;5051029;28;20094;-74
2022/11/20 08:08:59;;;;;;;3.95;2.97;;;1.20;99.90;;;;;;5051379;28;20049;-73
2022/11/20 08:14:11;;;;;;;4.88;2.95;;;1.20;99.90;;;;;;5049732;28;20059;-74
2022/11/20 08:16:43;;;;;;;4.18;2.97;;;1.20;99.90;;;;;;5053026;28;20041;-75
2022/11/20 08:19:08;;;;;;;3.80;2.78;;;1.30;99.90;;;;;;5052984;28;20040;-75
2022/11/20 08:21:34;;;;;;;4.25;2.50;;;1.30;99.90;;;;;;5040422;28;20123;-75
2022/11/20 08:24:00;;;;;;;3.63;2.67;;;1.30;99.90;;;;;;5056927;28;20052;-75
2022/11/20 08:26:26;;;;;;;3.42;2.55;;;1.30;99.90;;;;;;5070552;28;20131;-75
2022/11/20 08:28:57;;;;;;;3.75;3.00;;;1.30;99.90;;;;;;5048237;28;20480;-74
2022/11/20 08:31:24;;;;;;;4.85;3.30;;;1.30;99.90;;;;;;5051503;28;20127;-74
2022/11/20 08:33:50;;;;;;;4.22;3.20;;;1.30;99.90;;;;;;5058797;28;20049;-75
2022/11/20 08:36:17;;;;;;;3.92;2.95;;;1.30;99.90;;;;;;5049050;28;20313;-75
2022/11/20 08:38:51;;;;;;;4.00;2.67;;;1.30;99.90;;;;;;5055749;28;20037;-75
2022/11/20 08:41:23;;;;;;;3.80;2.80;;;1.30;99.90;;;;;;5058075;28;20055;-75
2022/11/20 08:43:56;;;;;;;5.53;3.92;;;1.40;99.90;;;;;;5057692;28;20040;-76
2022/11/20 08:46:23;;;;;;;5.05;3.40;;;1.40;99.90;;;;;;5057038;28;20488;-76
2022/11/20 08:48:49;;;;;;;5.50;4.13;;;1.40;99.90;;;;;;5060957;28;20044;-76
2022/11/20 08:51:15;;;;;;;4.68;3.55;;;1.40;99.90;;;;;;5035030;28;20102;-75
2022/11/20 08:53:42;;;;;;;4.65;3.47;;;1.40;99.90;;;;;;5056229;28;20058;-75
2022/11/20 08:56:07;;;;;;;;;;;1.50;99.90;;;;;;5070029;28;20471;-76
2022/11/20 08:58:33;;;;;;;5.40;4.00;;;1.40;99.90;;;;;;5031826;28;19940;-76
2022/11/20 09:00:59;;;;;;;6.63;4.70;;;1.40;99.90;;;;;;5053333;28;20032;-75
2022/11/20 09:03:26;;;;;;;7.20;4.88;;;1.40;99.90;;;;;;5055333;28;20123;-74
2022/11/20 09:06:01;;;;;;;5.55;4.40;;;1.40;99.90;;;;;;5044106;28;20041;-75
2022/11/20 09:08:28;;;;;;;5.63;3.90;;;1.40;99.90;;;;;;5060087;28;20048;-76
2022/11/20 09:10:55;;;;;;;6.47;5.18;;;1.40;99.90;;;;;;5077019;28;20084;-74
2022/11/20 09:13:22;;;;;;;7.72;5.57;;;1.40;99.90;;;;;;5059559;28;20053;-75
2022/11/20 09:15:52;;;;;;;9.38;6.72;;;1.40;99.90;;;;;;5063384;28;20440;-75
2022/11/20 09:18:18;;;;;;;8.05;5.55;;;1.40;99.90;;;;;;5039324;28;20497;-74
2022/11/20 09:20:44;;;;;;;6.85;5.15;;;1.40;99.90;;;;;;5058558;28;20181;-75
2022/11/20 09:23:09;;;;;;;6.10;4.53;;;1.40;99.90;;;;;;5056615;28;20045;-75
2022/11/20 09:25:35;;;;;;;6.18;4.63;;;1.40;99.90;;;;;;5060431;28;20122;-74
2022/11/20 09:28:01;;;;;;;7.43;5.47;;;1.40;99.90;;;;;;5042291;28;20044;-75
2022/11/20 09:30:28;;;;;;;7.13;5.13;;;1.40;99.90;;;;;;5070097;28;20029;-76
2022/11/20 09:32:53;;;;;;;7.15;4.78;;;1.40;99.90;;;;;;5056901;28;20051;-74
2022/11/20 09:35:19;;;;;;;5.60;4.30;;;1.40;99.90;;;;;;5047577;28;20048;-74
2022/11/20 09:37:45;;;;;;;9.23;6.75;;;1.40;99.90;;;;;;5057898;28;20119;-75
2022/11/20 09:40:26;;;;;;;7.55;5.53;;;1.40;99.90;;;;;;5045473;28;20040;-76
2022/11/20 09:43:13;;;;;;;8.50;6.25;;;1.50;99.90;;;;;;5057224;28;20132;-76
2022/11/20 09:45:42;;;;;;;8.48;6.15;;;1.50;99.90;;;;;;5034511;28;20060;-74
2022/11/20 09:48:10;;;;;;;8.25;6.15;;;1.50;99.90;;;;;;5035119;28;20071;-74
2022/11/20 09:51:00;;;;;;;8.10;6.10;;;1.50;99.90;;;;;;5051679;28;20461;-74
2022/11/20 09:53:33;;;;;;;6.57;5.25;;;1.60;99.90;;;;;;5051756;28;20076;-75
2022/11/20 09:56:02;;;;;;;8.20;5.68;;;1.60;99.90;;;;;;5036014;28;20044;-75
2022/11/20 09:58:45;;;;;;;6.97;4.75;;;1.60;99.90;;;;;;5052268;28;20128;-75
2022/11/20 10:01:16;;;;;;;5.53;4.30;;;1.60;99.90;;;;;;5064033;28;20052;-75
2022/11/20 10:04:06;;;;;;;6.43;4.40;;;1.70;99.90;;;;;;5055413;28;20110;-75
2022/11/20 10:06:37;;;;;;;7.60;5.13;;;1.70;99.90;;;;;;5072264;28;20067;-76
2022/11/20 10:09:12;;;;;;;9.25;6.70;;;1.80;99.90;;;;;;5073046;28;20129;-75
2022/11/20 10:12:03;;;;;;;8.57;6.03;;;1.80;99.90;;;;;;5071616;28;20438;-74
2022/11/20 10:14:35;;;;;;;8.85;5.72;;;1.90;99.90;;;;;;5062526;28;20090;-74
2022/11/20 10:17:13;;;;;;;8.90;6.43;;;1.90;99.90;;;;;;5070381;28;20059;-74
2022/11/20 10:20:00;;;;;;;7.95;5.75;;;1.90;99.90;;;;;;5071964;28;20042;-74
2022/11/20 10:23:17;;;;;;;7.93;5.70;;;2.00;99.90;;;;;;5072703;28;20041;-75
2022/11/20 10:26:01;;;;;;;8.15;5.88;;;2.00;99.90;;;;;;5027102;28;20052;-75
2022/11/20 10:28:59;;;;;;;9.02;6.72;;;2.00;99.90;;;;;;5072817;28;20503;-69
2022/11/20 10:31:56;;;;;;;8.30;5.97;;;2.10;99.90;;;;;;5066430;28;20468;-71
2022/11/20 10:34:46;;;;;;;8.95;6.40;;;2.20;99.90;;;;;;5070541;28;20526;-71
2022/11/20 10:37:22;;;;;;;8.93;6.75;;;2.30;99.90;;;;;;5070217;28;20467;-69
2022/11/20 10:39:54;;;;;;;11.25;7.65;;;2.30;99.90;;;;;;5070371;28;20406;-71
2022/11/20 10:42:31;;;;;;;9.70;6.57;;;2.30;99.90;;;;;;5069719;28;20514;-71
2022/11/20 10:45:16;;;;;;;8.70;6.30;;;2.30;99.90;;;;;;5053655;28;20040;-71
2022/11/20 10:47:42;;;;;;;8.45;6.38;;;2.40;99.90;;;;;;5071382;28;20123;-70
2022/11/20 10:50:13;;;;;;;7.80;5.80;;;2.40;99.90;;;;;;5052972;28;20683;-70
2022/11/20 10:52:45;;;;;;;8.10;6.50;;;2.50;99.90;;;;;;5053176;28;20847;-70
2022/11/20 10:55:29;;;;;;;9.13;6.72;;;2.70;99.90;;;;;;5071523;28;20036;-72
2022/11/20 10:58:21;;;;;;;8.27;6.32;;;2.80;99.90;;;;;;5044203;28;20064;-70
2022/11/20 11:00:46;;;;;;;9.00;6.75;;;3.00;99.90;;;;;;5059152;28;20515;-69
2022/11/20 11:03:31;;;;;;;10.23;7.72;;;3.00;99.90;;;;;;5038024;28;20041;-70
2022/11/20 11:06:10;;;;;;;10.38;7.75;;;3.20;99.90;;;;;;5051694;28;20047;-69
2022/11/20 11:08:39;;;;;;;8.48;6.82;;;3.40;99.90;;;;;;5057046;28;20512;-69
2022/11/20 11:11:23;;;;;;;10.38;7.03;;;3.50;99.90;;;;;;5037354;28;20167;-69
2022/11/20 11:13:49;;;;;;;9.40;7.32;;;3.40;99.90;;;;;;5061857;28;20045;-75
2022/11/20 11:16:26;;;;;;;9.23;6.90;;;3.30;99.90;;;;;;5044004;28;20098;-76
2022/11/20 11:19:07;;;;;;;8.65;6.35;;;3.10;99.90;;;;;;5033975;28;20123;-75
2022/11/20 11:21:32;;;;;;;8.05;6.03;;;3.00;99.90;;;;;;5069751;28;20067;-76
2022/11/20 11:24:01;;;;;;;7.90;5.90;;;2.90;99.90;;;;;;5061951;28;20085;-76
2022/11/20 11:26:27;;;;;;;8.63;6.63;;;2.80;99.90;;;;;;5058633;28;20058;-75
2022/11/20 11:29:04;;;;;;;7.22;5.65;;;2.70;99.90;;;;;;5061155;28;20118;-75
2022/11/20 11:31:32;;;;;;;7.93;5.85;;;2.70;99.90;;;;;;5038879;28;20047;-76
2022/11/20 11:34:15;;;;;;;7.35;5.53;;;2.70;99.90;;;;;;5054670;28;20032;-77
2022/11/20 11:36:41;;;;;;;7.95;6.38;;;2.70;99.90;;;;;;5061828;28;20391;-76
2022/11/20 11:39:16;;;;;;;7.55;6.22;;;2.80;99.90;;;;;;5057363;28;20471;-77
2022/11/20 11:41:41;;;;;;;8.32;5.80;;;2.90;99.90;;;;;;5054883;28;20133;-77
2022/11/20 11:47:44;;;;;;;8.35;5.97;;;2.80;99.90;;;;;;5060045;28;20050;-77
2022/11/20 11:50:09;;;;;;;8.27;6.30;;;2.90;99.90;;;;;;5081332;28;20045;-75
2022/11/20 11:53:05;;;;;;;7.27;5.47;;;2.80;99.90;;;;;;5061357;28;20063;-74
2022/11/20 11:55:33;;;;;;;6.80;5.18;;;2.80;99.90;;;;;;5060379;28;20323;-75
2022/11/20 11:58:14;;;;;;;6.65;4.72;;;2.80;99.90;;;;;;5059845;28;20051;-76
2022/11/20 12:00:47;;;;;;;6.80;5.35;;;2.80;99.90;;;;;;5068399;28;20040;-75
2022/11/20 12:03:27;;;;;;;6.35;4.75;;;2.70;99.90;;;;;;5054703;28;20084;-75
2022/11/20 12:06:01;;;;;;;6.38;4.82;;;2.80;99.90;;;;;;5050381;28;20049;-75
2022/11/20 12:08:45;;;;;;;5.85;4.57;;;2.90;99.90;;;;;;5060118;28;20442;-75
2022/11/20 12:11:43;;;;;;;5.85;4.20;;;3.10;99.90;;;;;;5066422;28;20171;-75
2022/11/20 12:14:14;;;;;;;5.03;4.23;;;3.30;99.90;;;;;;5047940;28;20048;-75
2022/11/20 12:16:40;;;;;;;5.63;4.30;;;3.40;99.90;;;;;;5055986;28;20286;-70
2022/11/20 12:19:12;;;;;;;5.55;4.43;;;3.70;99.90;;;;;;5052609;28;20040;-70
2022/11/20 12:21:47;;;;;;;5.53;4.68;;;3.90;99.90;;;;;;5037747;28;20094;-69
2022/11/20 12:24:32;;;;;;;6.13;4.75;;;4.20;99.90;;;;;;5055469;28;20064;-70
2022/11/20 12:27:31;;;;;;;5.03;3.88;;;4.30;99.90;;;;;;5032430;28;20059;-70
2022/11/20 12:30:12;;;;;;;4.63;3.70;;;4.40;99.90;;;;;;5035347;28;20097;-70
2022/11/20 12:33:15;;;;;;;5.50;4.18;;;4.60;99.90;;;;;;5052742;28;20059;-70
2022/11/20 12:36:03;;;;;;;4.32;3.55;;;4.60;99.90;;;;;;5062239;28;20123;-70
2022/11/20 12:38:46;;;;;;;4.25;3.40;;;4.80;99.90;;;;;;5061012;28;20056;-70
2022/11/20 12:45:09;;;;;;;4.47;3.60;;;4.80;99.90;;;;;;5057141;28;20121;-71
2022/11/20 12:48:01;;;;;;;3.97;3.20;;;4.50;99.30;;;;;;5037791;28;20049;-70
2022/11/20 12:50:48;;;;;;;3.97;3.28;;;4.30;99.90;;;;;;5054316;28;20051;-71
2022/11/20 12:53:31;;;;;;;4.10;3.35;;;4.20;99.90;;;;;;5049813;28;20050;-70
2022/11/20 12:56:11;;;;;;;3.72;2.90;;;4.10;99.90;;;;;;5053236;28;20043;-70
2022/11/20 12:59:00;;;;;;;3.53;2.80;;;4.00;99.80;;;;;;5053552;28;20484;-70
2022/11/20 13:01:55;;;;;;;3.85;3.03;;;4.00;99.90;;;;;;5066802;28;20449;-70
2022/11/20 13:04:36;;;;;;;3.03;2.38;;;3.90;99.90;;;;;;5042922;28;20067;-70
2022/11/20 13:07:04;;;;;;;3.85;2.80;;;4.00;99.90;;;;;;5056202;28;20087;-70
2022/11/20 13:09:32;;;;;;;3.80;3.00;;;4.00;99.90;;;;;;5050718;28;20059;-71
2022/11/20 13:12:22;;;;;;;3.50;2.60;;;4.00;99.90;;;;;;5059110;28;20507;-70
2022/11/20 13:15:25;;;;;;;3.22;2.63;;;4.00;99.90;;;;;;5041532;28;20043;-71
2022/11/20 13:17:53;;;;;;;2.97;2.20;;;4.10;99.90;;;;;;5038387;28;20052;-70
2022/11/20 13:20:20;;;;;;;3.05;2.28;;;4.10;99.90;;;;;;5053913;28;20040;-70
2022/11/20 13:22:48;;;;;;;3.53;2.55;;;4.10;99.90;;;;;;5039370;28;20036;-70
2022/11/20 13:25:27;;;;;;;3.13;2.50;;;4.20;99.90;;;;;;5051879;28;20085;-71